createdAt,value
2018-12-27T00:00:31.680Z,25.12
2018-12-27T00:01:19.717Z,24.67
2018-12-27T00:02:07.487Z,23.57
2018-12-27T00:02:55.475Z,28.25
2018-12-27T00:03:43.223Z,26.37
2018-12-27T00:04:31.260Z,26.73
2018-12-27T00:05:19.171Z,23.38
2018-12-27T00:06:06.453Z,24.57
2018-12-27T00:06:54.547Z,24.23
2018-12-27T00:07:42.648Z,21.42
2018-12-27T00:08:31.162Z,25.77
2018-12-27T00:09:19.426Z,25.50
2018-12-27T00:10:07.350Z,26.45
2018-12-27T00:10:55.445Z,24.00
2018-12-27T00:11:43.723Z,21.35
2018-12-27T00:12:31.472Z,23.52
2018-12-27T00:13:19.751Z,27.93
2018-12-27T00:14:07.400Z,34.05
2018-12-27T00:14:54.984Z,24.32
2018-12-27T00:15:42.870Z,26.27
2018-12-27T00:16:32.217Z,23.90
2018-12-27T00:17:20.213Z,23.42
2018-12-27T00:18:08.094Z,23.87
2018-12-27T00:18:56.402Z,22.15
2018-12-27T00:19:44.871Z,24.67
2018-12-27T00:20:32.621Z,26.68
2018-12-27T00:21:20.832Z,23.10
2018-12-27T00:22:09.157Z,23.73
2018-12-27T00:24:05.612Z,23.35
2018-12-27T00:24:54.353Z,23.18
2018-12-27T00:25:42.617Z,24.45
2018-12-27T00:26:31.091Z,20.90
2018-12-27T00:27:19.300Z,24.80
2018-12-27T00:28:07.792Z,22.52
2018-12-27T00:28:55.441Z,22.42
2018-12-27T00:29:43.812Z,22.10
2018-12-27T00:30:32.178Z,21.02
2018-12-27T00:31:20.274Z,22.48
2018-12-27T00:32:08.279Z,24.60
2018-12-27T00:33:02.931Z,20.43
2018-12-27T00:33:46.315Z,21.25
2018-12-27T00:34:34.462Z,24.15
2018-12-27T00:35:22.221Z,18.98
2018-12-27T00:36:10.518Z,21.37
2018-12-27T00:36:59.801Z,25.55
2018-12-27T00:37:50.551Z,23.27
2018-12-27T00:38:57.690Z,22.42
2018-12-27T00:39:45.806Z,24.15
2018-12-27T00:40:33.823Z,26.80
2018-12-27T00:41:21.900Z,23.95
2018-12-27T00:42:09.939Z,26.87
2018-12-27T00:42:59.968Z,23.90
2018-12-27T00:43:49.791Z,23.80
2018-12-27T00:44:38.078Z,22.13
2018-12-27T00:45:25.717Z,21.40
2018-12-27T00:46:13.578Z,22.07
2018-12-27T00:47:01.668Z,22.15
2018-12-27T00:47:50.119Z,24.27
2018-12-27T00:48:38.066Z,19.73
2018-12-27T00:49:26.205Z,25.35
2018-12-27T00:50:14.734Z,21.93
2018-12-27T00:51:02.672Z,20.72
2018-12-27T00:51:51.033Z,22.82
2018-12-27T00:52:39.062Z,22.95
2018-12-27T00:53:27.221Z,21.73
2018-12-27T00:54:15.330Z,23.00
2018-12-27T00:55:03.481Z,25.55
2018-12-27T00:55:51.681Z,23.32
2018-12-27T00:56:39.510Z,20.35
2018-12-27T00:57:27.846Z,21.35
2018-12-27T00:58:15.856Z,22.82
2018-12-27T00:59:04.387Z,24.00
2018-12-27T00:59:52.697Z,21.90
2018-12-27T01:00:40.956Z,23.80
2018-12-27T01:01:29.299Z,20.85
2018-12-27T01:02:17.746Z,23.32
2018-12-27T01:03:11.001Z,21.00
2018-12-27T01:03:55.366Z,21.15
2018-12-27T01:04:46.474Z,20.62
2018-12-27T01:05:34.623Z,26.77
2018-12-27T01:06:22.878Z,22.77
2018-12-27T01:07:11.223Z,23.25
2018-12-27T01:07:59.274Z,23.92
2018-12-27T01:08:47.651Z,22.48
2018-12-27T01:09:35.784Z,25.50
2018-12-27T01:10:24.154Z,20.40
2018-12-27T01:11:12.342Z,23.77
2018-12-27T01:12:00.679Z,20.50
2018-12-27T01:12:48.811Z,20.40
2018-12-27T01:13:37.300Z,19.48
2018-12-27T01:14:25.577Z,22.00
2018-12-27T01:15:13.757Z,18.65
2018-12-27T01:16:02.328Z,24.63
2018-12-27T01:16:50.308Z,25.90
2018-12-27T01:17:37.929Z,22.20
2018-12-27T01:18:25.919Z,21.40
2018-12-27T01:19:15.116Z,22.80
2018-12-27T01:20:03.941Z,22.80
2018-12-27T01:20:52.476Z,21.87
2018-12-27T01:21:40.968Z,24.60
2018-12-27T01:22:28.695Z,23.20
2018-12-27T01:23:16.452Z,23.32
2018-12-27T01:24:04.311Z,19.98
2018-12-27T01:24:52.452Z,18.87
2018-12-27T01:25:40.834Z,19.27
2018-12-27T01:26:28.711Z,18.80
2018-12-27T01:27:16.430Z,22.30
2018-12-27T01:28:04.719Z,17.10
2018-12-27T01:28:52.818Z,20.57
2018-12-27T01:29:41.260Z,22.87
2018-12-27T01:30:29.337Z,22.02
2018-12-27T01:31:20.078Z,22.17
2018-12-27T01:32:08.528Z,28.83
2018-12-27T01:32:56.348Z,19.52
2018-12-27T01:33:44.672Z,23.02
2018-12-27T01:34:34.577Z,21.17
2018-12-27T01:35:22.947Z,18.65
2018-12-27T01:36:10.375Z,24.72
2018-12-27T01:36:58.401Z,22.45
2018-12-27T01:37:46.277Z,25.12
2018-12-27T01:38:34.713Z,22.30
2018-12-27T01:39:22.614Z,20.65
2018-12-27T01:40:11.045Z,28.77
2018-12-27T01:40:59.313Z,22.30
2018-12-27T01:41:47.564Z,21.90
2018-12-27T01:42:35.914Z,24.40
2018-12-27T01:43:23.973Z,24.00
2018-12-27T01:44:13.552Z,22.70
2018-12-27T01:45:01.254Z,20.45
2018-12-27T01:45:49.650Z,25.35
2018-12-27T01:46:39.919Z,20.50
2018-12-27T01:47:28.892Z,19.20
2018-12-27T01:48:17.364Z,20.72
2018-12-27T01:49:05.190Z,20.45
2018-12-27T01:49:53.503Z,19.25
2018-12-27T01:50:41.483Z,24.30
2018-12-27T01:51:29.185Z,19.65
2018-12-27T01:52:17.208Z,23.92
2018-12-27T01:53:05.397Z,21.57
2018-12-27T01:53:53.820Z,21.07
2018-12-27T01:54:44.690Z,21.25
2018-12-27T01:55:32.705Z,20.37
2018-12-27T01:56:20.834Z,23.07
2018-12-27T01:57:08.818Z,21.10
2018-12-27T01:57:57.051Z,18.45
2018-12-27T01:58:45.054Z,21.25
2018-12-27T01:59:35.222Z,21.60
2018-12-27T02:00:23.673Z,19.12
2018-12-27T02:01:11.376Z,19.40
2018-12-27T02:01:59.814Z,20.02
2018-12-27T02:02:48.226Z,23.83
2018-12-27T02:03:36.256Z,20.12
2018-12-27T02:04:24.259Z,19.65
2018-12-27T02:05:52.994Z,22.45
2018-12-27T02:08:48.744Z,17.40
2018-12-27T02:09:36.786Z,18.65
2018-12-27T02:10:25.354Z,19.27
2018-12-27T02:11:13.806Z,19.60
2018-12-27T02:12:02.087Z,20.55
2018-12-27T02:12:50.190Z,20.85
2018-12-27T02:13:38.287Z,23.65
2018-12-27T02:14:26.519Z,24.50
2018-12-27T02:15:15.128Z,18.20
2018-12-27T02:16:02.647Z,20.55
2018-12-27T02:16:50.906Z,24.25
2018-12-27T02:17:38.849Z,21.25
2018-12-27T02:18:27.067Z,18.42
2018-12-27T02:19:15.522Z,18.95
2018-12-27T02:20:03.817Z,19.73
2018-12-27T02:20:52.521Z,17.70
2018-12-27T02:21:40.747Z,18.32
2018-12-27T02:22:29.189Z,18.67
2018-12-27T02:23:17.427Z,23.27
2018-12-27T02:24:05.767Z,20.17
2018-12-27T02:24:53.988Z,18.50
2018-12-27T02:25:41.848Z,18.90
2018-12-27T02:26:29.675Z,17.85
2018-12-27T02:27:17.707Z,20.43
2018-12-27T02:28:06.749Z,18.67
2018-12-27T02:28:55.388Z,20.48
2018-12-27T02:29:43.509Z,20.62
2018-12-27T02:30:32.431Z,16.45
2018-12-27T02:31:21.360Z,16.60
2018-12-27T02:32:09.172Z,17.95
2018-12-27T02:32:57.919Z,18.32
2018-12-27T02:33:45.575Z,17.80
2018-12-27T02:34:33.670Z,19.48
2018-12-27T02:35:21.699Z,17.70
2018-12-27T02:36:09.936Z,17.80
2018-12-27T02:36:58.530Z,19.27
2018-12-27T02:37:46.912Z,18.00
2018-12-27T02:38:35.127Z,15.32
2018-12-27T02:39:23.611Z,21.37
2018-12-27T02:40:11.805Z,16.32
2018-12-27T02:41:00.164Z,16.75
2018-12-27T02:41:48.242Z,22.52
2018-12-27T02:42:36.071Z,19.52
2018-12-27T02:43:25.092Z,18.92
2018-12-27T02:44:13.467Z,18.65
2018-12-27T02:45:02.039Z,19.32
2018-12-27T02:45:49.962Z,14.45
2018-12-27T02:46:38.445Z,15.00
2018-12-27T02:47:26.592Z,17.50
2018-12-27T02:48:14.462Z,14.65
2018-12-27T02:49:02.979Z,17.82
2018-12-27T02:49:51.186Z,17.50
2018-12-27T02:50:39.273Z,16.57
2018-12-27T02:51:27.534Z,18.98
2018-12-27T02:52:15.862Z,16.85
2018-12-27T02:53:03.514Z,16.27
2018-12-27T02:53:51.442Z,19.17
2018-12-27T02:54:39.593Z,19.37
2018-12-27T02:55:28.125Z,15.80
2018-12-27T02:56:16.183Z,18.57
2018-12-27T02:57:04.584Z,17.52
2018-12-27T02:57:52.262Z,18.50
2018-12-27T02:58:40.785Z,18.73
2018-12-27T02:59:28.743Z,18.23
2018-12-27T03:00:16.874Z,14.50
2018-12-27T03:01:06.425Z,17.65
2018-12-27T03:01:54.429Z,14.23
2018-12-27T03:02:42.464Z,16.80
2018-12-27T03:03:30.443Z,17.00
2018-12-27T03:04:18.414Z,19.60
2018-12-27T03:05:06.565Z,13.05
2018-12-27T03:05:54.852Z,19.07
2018-12-27T03:06:42.633Z,15.08
2018-12-27T03:07:31.096Z,20.95
2018-12-27T03:08:19.435Z,15.08
2018-12-27T03:09:07.268Z,16.52
2018-12-27T03:09:55.386Z,12.98
2018-12-27T03:10:43.802Z,15.40
2018-12-27T03:11:32.215Z,16.48
2018-12-27T03:12:19.854Z,18.37
2018-12-27T03:13:07.344Z,15.45
2018-12-27T03:13:55.300Z,18.50
2018-12-27T03:14:43.696Z,17.77
2018-12-27T03:15:31.955Z,16.32
2018-12-27T03:16:20.264Z,18.70
2018-12-27T03:17:08.255Z,17.50
2018-12-27T03:17:56.227Z,16.60
2018-12-27T03:18:44.437Z,18.15
2018-12-27T03:19:32.525Z,14.40
2018-12-27T03:20:20.757Z,13.10
2018-12-27T03:21:09.025Z,16.23
2018-12-27T03:21:57.228Z,16.25
2018-12-27T03:22:45.227Z,17.95
2018-12-27T03:23:33.830Z,14.25
2018-12-27T03:24:22.342Z,16.32
2018-12-27T03:25:10.165Z,15.58
2018-12-27T03:25:58.331Z,15.98
2018-12-27T03:26:46.209Z,19.05
2018-12-27T03:27:34.317Z,17.60
2018-12-27T03:28:21.972Z,17.32
2018-12-27T03:29:10.116Z,18.40
2018-12-27T03:29:58.372Z,14.18
2018-12-27T03:30:46.277Z,14.87
2018-12-27T03:31:34.129Z,13.53
2018-12-27T03:32:22.341Z,13.68
2018-12-27T03:33:10.679Z,16.42
2018-12-27T03:33:59.066Z,17.20
2018-12-27T03:34:47.044Z,13.58
2018-12-27T03:35:35.330Z,13.88
2018-12-27T03:36:23.271Z,15.75
2018-12-27T03:37:10.830Z,14.65
2018-12-27T03:37:59.217Z,14.75
2018-12-27T03:38:47.176Z,15.72
2018-12-27T03:39:35.278Z,12.88
2018-12-27T03:40:23.719Z,12.65
2018-12-27T03:41:11.438Z,17.90
2018-12-27T03:41:59.629Z,15.43
2018-12-27T03:42:48.053Z,16.48
2018-12-27T03:43:36.958Z,12.25
2018-12-27T03:44:24.644Z,15.13
2018-12-27T03:46:01.106Z,14.40
2018-12-27T03:46:48.657Z,17.73
2018-12-27T03:47:36.427Z,13.38
2018-12-27T03:48:24.556Z,13.65
2018-12-27T03:49:12.947Z,14.40
2018-12-27T03:50:06.317Z,11.45
2018-12-27T03:50:54.326Z,12.90
2018-12-27T03:51:42.185Z,12.73
2018-12-27T03:52:30.527Z,14.03
2018-12-27T03:53:18.260Z,13.95
2018-12-27T03:54:06.145Z,15.25
2018-12-27T03:54:54.307Z,10.72
2018-12-27T03:55:42.005Z,15.63
2018-12-27T03:56:29.879Z,11.73
2018-12-27T03:57:18.233Z,11.95
2018-12-27T03:58:06.767Z,17.17
2018-12-27T03:58:54.967Z,14.05
2018-12-27T03:59:43.228Z,10.53
2018-12-27T04:00:31.156Z,14.87
2018-12-27T04:01:19.608Z,14.25
2018-12-27T04:02:07.899Z,13.38
2018-12-27T04:02:55.805Z,16.30
2018-12-27T04:03:43.898Z,11.00
2018-12-27T04:04:31.707Z,12.43
2018-12-27T04:05:20.029Z,15.03
2018-12-27T04:06:08.179Z,12.50
2018-12-27T04:06:56.310Z,13.68
2018-12-27T04:07:44.318Z,13.50
2018-12-27T04:08:32.748Z,13.18
2018-12-27T04:09:20.699Z,13.28
2018-12-27T04:10:08.866Z,13.08
2018-12-27T04:10:56.725Z,9.33
2018-12-27T04:11:45.047Z,18.23
2018-12-27T04:12:33.301Z,14.00
2018-12-27T04:13:21.791Z,16.95
2018-12-27T04:14:10.009Z,13.83
2018-12-27T04:14:58.167Z,11.70
2018-12-27T04:15:45.632Z,11.83
2018-12-27T04:16:33.175Z,15.83
2018-12-27T04:17:21.178Z,12.93
2018-12-27T04:18:09.459Z,14.90
2018-12-27T04:18:57.773Z,12.65
2018-12-27T04:19:46.358Z,11.40
2018-12-27T04:20:33.939Z,12.73
2018-12-27T04:21:22.032Z,10.20
2018-12-27T04:22:10.437Z,11.60
2018-12-27T04:22:59.180Z,12.37
2018-12-27T04:23:47.842Z,13.95
2018-12-27T04:24:36.329Z,13.20
2018-12-27T04:25:24.891Z,12.82
2018-12-27T04:26:12.861Z,13.72
2018-12-27T04:27:00.891Z,14.98
2018-12-27T04:27:48.510Z,14.55
2018-12-27T04:28:37.654Z,13.93
2018-12-27T04:29:25.324Z,13.65
2018-12-27T04:30:13.449Z,11.28
2018-12-27T04:31:01.611Z,11.73
2018-12-27T04:31:49.841Z,11.53
2018-12-27T04:32:37.803Z,13.90
2018-12-27T04:33:26.158Z,10.95
2018-12-27T04:34:14.131Z,9.28
2018-12-27T04:35:02.383Z,11.65
2018-12-27T04:35:50.750Z,9.78
2018-12-27T04:36:39.293Z,13.48
2018-12-27T04:37:27.598Z,11.60
2018-12-27T04:38:15.991Z,10.28
2018-12-27T04:39:04.609Z,10.72
2018-12-27T04:39:52.983Z,12.45
2018-12-27T04:40:41.009Z,11.10
2018-12-27T04:41:29.373Z,10.85
2018-12-27T04:42:17.841Z,14.25
2018-12-27T04:43:06.010Z,10.35
2018-12-27T04:43:54.300Z,9.55
2018-12-27T04:44:42.719Z,9.80
2018-12-27T04:45:30.301Z,11.97
2018-12-27T04:46:18.198Z,9.48
2018-12-27T04:47:06.451Z,13.83
2018-12-27T04:47:54.658Z,8.93
2018-12-27T04:48:42.842Z,11.28
2018-12-27T04:49:30.920Z,11.88
2018-12-27T04:50:18.467Z,12.10
2018-12-27T04:51:06.997Z,8.23
2018-12-27T04:51:55.242Z,17.12
2018-12-27T04:52:43.483Z,10.58
2018-12-27T04:53:31.440Z,10.85
2018-12-27T04:54:19.490Z,13.40
2018-12-27T04:55:07.060Z,8.90
2018-12-27T04:55:55.100Z,13.18
2018-12-27T04:56:43.411Z,12.33
2018-12-27T04:57:31.707Z,12.63
2018-12-27T04:58:19.782Z,11.38
2018-12-27T04:59:08.223Z,11.25
2018-12-27T04:59:56.179Z,11.80
2018-12-27T05:00:44.481Z,11.90
2018-12-27T05:01:32.669Z,14.98
2018-12-27T05:02:20.632Z,10.72
2018-12-27T05:03:08.891Z,11.90
2018-12-27T05:03:57.120Z,12.18
2018-12-27T05:04:45.321Z,18.40
2018-12-27T05:05:33.391Z,12.80
2018-12-27T05:06:21.481Z,13.70
2018-12-27T05:07:09.921Z,15.18
2018-12-27T05:08:00.437Z,13.72
2018-12-27T05:08:50.354Z,15.45
2018-12-27T05:09:38.401Z,14.47
2018-12-27T05:10:26.289Z,13.90
2018-12-27T05:11:14.271Z,16.15
2018-12-27T05:12:02.543Z,17.23
2018-12-27T05:12:50.653Z,16.05
2018-12-27T05:13:43.161Z,14.38
2018-12-27T05:14:50.508Z,13.60
2018-12-27T05:15:38.531Z,16.10
2018-12-27T05:16:26.702Z,12.58
2018-12-27T05:17:15.232Z,12.85
2018-12-27T05:18:03.612Z,15.40
2018-12-27T05:18:51.701Z,13.65
2018-12-27T05:19:39.943Z,16.30
2018-12-27T05:20:27.753Z,14.47
2018-12-27T05:21:15.587Z,17.95
2018-12-27T05:22:03.160Z,16.20
2018-12-27T05:22:51.264Z,15.38
2018-12-27T05:23:39.020Z,14.70
2018-12-27T05:24:27.239Z,16.32
2018-12-27T05:25:15.201Z,12.93
2018-12-27T05:26:03.604Z,16.50
2018-12-27T05:26:51.543Z,15.50
2018-12-27T05:27:39.702Z,15.58
2018-12-27T05:28:28.271Z,14.93
2018-12-27T05:29:16.673Z,17.95
2018-12-27T05:30:04.345Z,14.23
2018-12-27T05:30:52.553Z,14.87
2018-12-27T05:31:40.582Z,14.95
2018-12-27T05:32:28.645Z,13.95
2018-12-27T05:33:17.232Z,15.23
2018-12-27T05:34:05.583Z,11.15
2018-12-27T05:34:53.743Z,14.03
2018-12-27T05:35:42.234Z,12.95
2018-12-27T05:36:29.983Z,12.90
2018-12-27T05:37:18.493Z,12.55
2018-12-27T05:38:06.355Z,15.23
2018-12-27T05:38:54.754Z,13.38
2018-12-27T05:39:43.983Z,10.88
2018-12-27T05:40:32.205Z,12.03
2018-12-27T05:41:23.094Z,14.83
2018-12-27T05:42:10.894Z,13.85
2018-12-27T05:42:59.348Z,16.02
2018-12-27T05:43:48.655Z,14.60
2018-12-27T05:44:36.886Z,12.40
2018-12-27T05:45:25.490Z,17.82
2018-12-27T05:46:13.824Z,14.40
2018-12-27T05:47:01.772Z,15.28
2018-12-27T05:47:49.697Z,12.73
2018-12-27T05:48:37.696Z,14.53
2018-12-27T05:49:25.323Z,13.22
2018-12-27T05:50:13.486Z,13.85
2018-12-27T05:51:01.796Z,14.20
2018-12-27T05:51:50.036Z,15.88
2018-12-27T05:52:38.132Z,11.68
2018-12-27T05:53:25.937Z,14.65
2018-12-27T05:54:13.924Z,14.73
2018-12-27T05:55:04.873Z,12.33
2018-12-27T05:55:53.074Z,13.65
2018-12-27T05:56:41.258Z,13.53
2018-12-27T05:57:29.585Z,15.18
2018-12-27T05:58:17.699Z,18.48
2018-12-27T05:59:05.624Z,18.02
2018-12-27T05:59:53.706Z,16.15
2018-12-27T06:00:41.879Z,13.60
2018-12-27T06:01:30.263Z,12.00
2018-12-27T06:02:18.042Z,14.95
2018-12-27T06:03:06.667Z,14.55
2018-12-27T06:03:54.939Z,15.93
2018-12-27T06:04:42.610Z,12.82
2018-12-27T06:05:31.040Z,16.15
2018-12-27T06:06:18.973Z,13.13
2018-12-27T06:07:06.540Z,16.50
2018-12-27T06:07:54.548Z,15.70
2018-12-27T06:08:43.970Z,12.78
2018-12-27T06:09:32.294Z,12.85
2018-12-27T06:10:20.361Z,13.95
2018-12-27T06:11:07.935Z,13.05
2018-12-27T06:11:55.965Z,18.50
2018-12-27T06:12:43.680Z,15.35
2018-12-27T06:13:31.886Z,16.23
2018-12-27T06:14:19.710Z,12.20
2018-12-27T06:15:07.932Z,12.88
2018-12-27T06:15:55.913Z,13.38
2018-12-27T06:16:44.068Z,17.15
2018-12-27T06:17:32.151Z,17.40
2018-12-27T06:18:20.223Z,14.83
2018-12-27T06:19:08.583Z,13.93
2018-12-27T06:19:57.022Z,12.20
2018-12-27T06:20:45.242Z,16.20
2018-12-27T06:21:33.371Z,17.80
2018-12-27T06:22:21.803Z,14.23
2018-12-27T06:23:10.372Z,14.73
2018-12-27T06:23:58.467Z,12.50
2018-12-27T06:24:45.923Z,15.18
2018-12-27T06:25:34.102Z,14.50
2018-12-27T06:26:22.334Z,13.10
2018-12-27T06:27:09.975Z,13.25
2018-12-27T06:27:58.183Z,10.82
2018-12-27T06:28:46.300Z,12.53
2018-12-27T06:29:34.213Z,15.65
2018-12-27T06:30:22.485Z,11.40
2018-12-27T06:31:10.870Z,12.70
2018-12-27T06:31:59.014Z,13.58
2018-12-27T06:32:47.355Z,11.97
2018-12-27T06:33:35.634Z,15.32
2018-12-27T06:34:30.668Z,12.18
2018-12-27T06:36:05.187Z,11.78
2018-12-27T06:37:06.454Z,12.70
2018-12-27T06:37:54.690Z,12.03
2018-12-27T06:38:44.091Z,14.45
2018-12-27T06:39:32.358Z,11.30
2018-12-27T06:40:20.254Z,13.80
2018-12-27T06:41:08.145Z,13.22
2018-12-27T06:41:56.265Z,13.55
2018-12-27T06:42:44.476Z,13.10
2018-12-27T06:43:32.145Z,13.62
2018-12-27T06:44:20.416Z,13.08
2018-12-27T06:45:08.405Z,12.53
2018-12-27T06:45:56.194Z,14.33
2018-12-27T06:46:43.835Z,13.25
2018-12-27T06:47:32.010Z,15.35
2018-12-27T06:48:20.176Z,13.10
2018-12-27T06:49:08.310Z,11.78
2018-12-27T06:49:55.909Z,9.93
2018-12-27T06:50:44.136Z,14.18
2018-12-27T06:51:32.187Z,12.63
2018-12-27T06:52:20.488Z,10.13
2018-12-27T06:53:08.716Z,12.80
2018-12-27T06:53:57.110Z,14.47
2018-12-27T06:54:45.333Z,16.20
2018-12-27T06:55:33.287Z,11.38
2018-12-27T06:56:20.866Z,10.75
2018-12-27T06:57:08.907Z,16.02
2018-12-27T06:57:56.766Z,13.25
2018-12-27T06:58:45.037Z,13.00
2018-12-27T06:59:33.147Z,10.70
2018-12-27T07:00:21.469Z,13.15
2018-12-27T07:01:09.337Z,12.15
2018-12-27T07:01:57.222Z,13.80
2018-12-27T07:02:45.523Z,11.80
2018-12-27T07:03:33.951Z,15.40
2018-12-27T07:04:22.006Z,11.83
2018-12-27T07:05:10.377Z,9.63
2018-12-27T07:05:58.178Z,12.58
2018-12-27T07:06:46.392Z,12.65
2018-12-27T07:07:34.826Z,14.38
2018-12-27T07:08:22.859Z,11.30
2018-12-27T07:09:10.547Z,12.60
2018-12-27T07:09:58.867Z,13.35
2018-12-27T07:10:47.359Z,11.55
2018-12-27T07:11:35.623Z,11.93
2018-12-27T07:12:23.610Z,15.13
2018-12-27T07:13:11.183Z,13.75
2018-12-27T07:13:59.464Z,15.85
2018-12-27T07:14:48.219Z,12.65
2018-12-27T07:15:36.147Z,12.13
2018-12-27T07:16:24.214Z,10.82
2018-12-27T07:17:12.634Z,9.80
2018-12-27T07:18:01.111Z,10.45
2018-12-27T07:18:49.679Z,11.60
2018-12-27T07:19:38.364Z,9.58
2018-12-27T07:20:26.771Z,13.00
2018-12-27T07:21:14.835Z,12.23
2018-12-27T07:22:02.970Z,11.55
2018-12-27T07:22:51.380Z,12.80
2018-12-27T07:23:39.650Z,12.05
2018-12-27T07:24:28.111Z,14.15
2018-12-27T07:25:16.401Z,14.20
2018-12-27T07:26:04.390Z,11.57
2018-12-27T07:26:52.579Z,11.88
2018-12-27T07:27:40.481Z,13.50
2018-12-27T07:28:28.684Z,8.75
2018-12-27T07:29:16.859Z,12.90
2018-12-27T07:30:05.781Z,13.00
2018-12-27T07:30:54.140Z,12.07
2018-12-27T07:31:42.251Z,11.43
2018-12-27T07:32:29.908Z,10.30
2018-12-27T07:33:17.855Z,12.25
2018-12-27T07:34:06.230Z,11.38
2018-12-27T07:34:56.630Z,12.05
2018-12-27T07:35:44.281Z,12.35
2018-12-27T07:36:32.550Z,11.70
2018-12-27T07:37:20.445Z,10.72
2018-12-27T07:38:08.894Z,10.10
2018-12-27T07:38:57.126Z,12.00
2018-12-27T07:39:45.147Z,10.10
2018-12-27T07:40:33.560Z,9.80
2018-12-27T07:41:21.774Z,12.20
2018-12-27T07:42:09.764Z,9.60
2018-12-27T07:42:57.831Z,10.00
2018-12-27T07:43:46.241Z,11.45
2018-12-27T07:44:34.062Z,10.93
2018-12-27T07:45:21.901Z,12.98
2018-12-27T07:46:11.063Z,12.15
2018-12-27T07:46:59.702Z,13.03
2018-12-27T07:47:47.601Z,11.90
2018-12-27T07:48:35.398Z,12.68
2018-12-27T07:49:23.962Z,12.23
2018-12-27T07:50:12.060Z,12.33
2018-12-27T07:50:59.831Z,14.28
2018-12-27T07:51:48.301Z,16.60
2018-12-27T07:52:36.650Z,16.07
2018-12-27T07:53:24.655Z,12.13
2018-12-27T07:54:12.861Z,11.53
2018-12-27T07:55:00.926Z,11.55
2018-12-27T07:55:48.661Z,10.75
2018-12-27T07:56:38.108Z,12.78
2018-12-27T07:57:26.494Z,16.60
2018-12-27T07:58:14.778Z,12.15
2018-12-27T07:59:02.868Z,12.13
2018-12-27T07:59:51.551Z,11.15
2018-12-27T08:00:39.929Z,12.85
2018-12-27T08:01:27.738Z,10.20
2018-12-27T08:02:15.238Z,12.23
2018-12-27T08:03:03.420Z,11.97
2018-12-27T08:03:50.987Z,11.10
2018-12-27T08:04:39.038Z,14.28
2018-12-27T08:05:26.547Z,11.43
2018-12-27T08:06:15.047Z,9.78
2018-12-27T08:07:03.288Z,11.95
2018-12-27T08:07:51.287Z,10.78
2018-12-27T08:08:39.256Z,11.75
2018-12-27T08:09:27.407Z,10.70
2018-12-27T08:10:15.249Z,12.90
2018-12-27T08:11:03.250Z,8.30
2018-12-27T08:11:51.219Z,12.18
2018-12-27T08:12:39.356Z,9.40
2018-12-27T08:13:27.845Z,16.07
2018-12-27T08:14:16.257Z,14.85
2018-12-27T08:15:04.315Z,12.33
2018-12-27T08:15:52.735Z,10.78
2018-12-27T08:16:40.750Z,12.70
2018-12-27T08:17:29.225Z,12.37
2018-12-27T08:18:16.921Z,8.75
2018-12-27T08:19:05.515Z,9.88
2018-12-27T08:19:53.719Z,11.35
2018-12-27T08:20:41.924Z,8.85
2018-12-27T08:21:29.867Z,10.65
2018-12-27T08:22:17.597Z,9.63
2018-12-27T08:23:05.160Z,10.68
2018-12-27T08:23:53.504Z,10.40
2018-12-27T08:24:42.055Z,12.65
2018-12-27T08:25:29.965Z,10.05
2018-12-27T08:26:17.557Z,10.93
2018-12-27T08:27:05.825Z,16.85
2018-12-27T08:27:54.194Z,7.83
2018-12-27T08:28:42.474Z,9.43
2018-12-27T08:29:30.544Z,9.45
2018-12-27T08:30:18.754Z,9.20
2018-12-27T08:31:06.931Z,9.95
2018-12-27T08:31:54.705Z,11.05
2018-12-27T08:32:42.691Z,12.10
2018-12-27T08:33:31.074Z,12.20
2018-12-27T08:34:18.984Z,10.25
2018-12-27T08:35:11.437Z,12.80
2018-12-27T08:35:56.563Z,7.72
2018-12-27T08:36:44.850Z,8.43
2018-12-27T08:37:33.483Z,9.33
2018-12-27T08:38:21.223Z,8.48
2018-12-27T08:39:09.920Z,8.30
2018-12-27T08:39:58.363Z,9.48
2018-12-27T08:40:46.662Z,8.93
2018-12-27T08:41:34.615Z,7.70
2018-12-27T08:42:22.516Z,9.80
2018-12-27T08:43:10.688Z,8.68
2018-12-27T08:43:59.943Z,6.85
2018-12-27T08:44:48.565Z,8.38
2018-12-27T08:45:36.954Z,7.55
2018-12-27T08:46:24.526Z,8.50
2018-12-27T08:47:11.832Z,9.83
2018-12-27T08:47:59.803Z,7.78
2018-12-27T08:48:47.392Z,8.08
2018-12-27T08:49:35.825Z,7.95
2018-12-27T08:50:23.775Z,9.25
2018-12-27T08:51:12.032Z,10.30
2018-12-27T08:52:00.038Z,9.53
2018-12-27T08:52:48.302Z,8.30
2018-12-27T08:53:36.351Z,8.13
2018-12-27T08:54:24.692Z,7.95
2018-12-27T08:55:12.763Z,7.85
2018-12-27T08:56:01.067Z,10.43
2018-12-27T08:56:49.374Z,9.23
2018-12-27T08:57:37.495Z,8.48
2018-12-27T08:58:26.035Z,6.03
2018-12-27T08:59:14.192Z,8.50
2018-12-27T09:00:02.033Z,7.03
2018-12-27T09:00:50.307Z,9.58
2018-12-27T09:01:38.552Z,7.08
2018-12-27T09:02:26.942Z,7.03
2018-12-27T09:03:15.274Z,5.72
2018-12-27T09:04:03.755Z,5.25
2018-12-27T09:04:51.606Z,8.30
2018-12-27T09:05:39.888Z,6.22
2018-12-27T09:06:27.885Z,9.08
2018-12-27T09:07:16.027Z,9.75
2018-12-27T09:08:04.217Z,6.35
2018-12-27T09:08:52.336Z,5.15
2018-12-27T09:09:40.517Z,6.22
2018-12-27T09:10:28.632Z,7.03
2018-12-27T09:11:16.808Z,6.37
2018-12-27T09:12:05.123Z,5.92
2018-12-27T09:12:53.489Z,9.63
2018-12-27T09:13:41.479Z,5.80
2018-12-27T09:14:29.701Z,7.25
2018-12-27T09:15:17.720Z,7.35
2018-12-27T09:16:06.061Z,5.40
2018-12-27T09:16:54.370Z,5.55
2018-12-27T09:17:42.711Z,6.78
2018-12-27T09:18:30.969Z,5.60
2018-12-27T09:19:19.110Z,6.90
2018-12-27T09:20:06.939Z,5.92
2018-12-27T09:20:55.144Z,5.85
2018-12-27T09:21:43.361Z,6.78
2018-12-27T09:22:31.561Z,5.45
2018-12-27T09:23:19.724Z,7.70
2018-12-27T09:24:07.563Z,7.03
2018-12-27T09:24:55.936Z,6.47
2018-12-27T09:25:45.567Z,6.25
2018-12-27T09:26:33.683Z,4.62
2018-12-27T09:27:21.546Z,6.75
2018-12-27T09:28:09.437Z,4.47
2018-12-27T09:28:57.294Z,6.50
2018-12-27T09:29:45.155Z,5.37
2018-12-27T09:30:33.458Z,6.17
2018-12-27T09:31:21.575Z,7.37
2018-12-27T09:32:09.032Z,6.28
2018-12-27T09:32:57.350Z,6.03
2018-12-27T09:33:46.065Z,6.75
2018-12-27T09:34:34.266Z,7.17
2018-12-27T09:35:26.238Z,6.67
2018-12-27T09:36:12.499Z,5.70
2018-12-27T09:37:00.696Z,7.75
2018-12-27T09:37:48.976Z,8.78
2018-12-27T09:38:36.866Z,7.30
2018-12-27T09:39:25.124Z,6.00
2018-12-27T09:40:13.157Z,5.70
2018-12-27T09:41:01.317Z,7.25
2018-12-27T09:41:49.127Z,6.67
2018-12-27T09:42:37.178Z,8.43
2018-12-27T09:43:25.369Z,5.97
2018-12-27T09:44:13.554Z,6.10
2018-12-27T09:45:01.724Z,8.18
2018-12-27T09:45:49.175Z,5.70
2018-12-27T09:46:37.416Z,8.35
2018-12-27T09:47:25.689Z,6.12
2018-12-27T09:48:14.082Z,6.22
2018-12-27T09:49:02.327Z,8.33
2018-12-27T09:49:50.292Z,6.62
2018-12-27T09:50:38.800Z,7.80
2018-12-27T09:51:27.071Z,8.45
2018-12-27T09:52:15.187Z,5.90
2018-12-27T09:53:03.024Z,7.30
2018-12-27T09:53:51.541Z,6.75
2018-12-27T09:54:39.142Z,6.60
2018-12-27T09:55:27.229Z,4.70
2018-12-27T09:56:15.232Z,4.37
2018-12-27T09:57:02.894Z,6.03
2018-12-27T09:57:50.724Z,6.83
2018-12-27T09:58:39.115Z,5.85
2018-12-27T09:59:27.149Z,11.68
2018-12-27T10:00:15.459Z,4.67
2018-12-27T10:01:03.144Z,4.80
2018-12-27T10:01:51.385Z,5.50
2018-12-27T10:02:40.073Z,5.47
2018-12-27T10:03:27.675Z,6.60
2018-12-27T10:04:15.324Z,5.10
2018-12-27T10:05:03.385Z,3.52
2018-12-27T10:05:51.774Z,5.53
2018-12-27T10:06:40.035Z,5.83
2018-12-27T10:07:28.113Z,5.60
2018-12-27T10:08:16.228Z,7.20
2018-12-27T10:09:04.981Z,5.72
2018-12-27T10:09:53.587Z,4.12
2018-12-27T10:10:41.656Z,5.05
2018-12-27T10:11:29.277Z,5.87
2018-12-27T10:12:17.576Z,8.10
2018-12-27T10:13:05.687Z,6.20
2018-12-27T10:13:54.110Z,7.25
2018-12-27T10:14:42.477Z,6.00
2018-12-27T10:15:30.438Z,6.60
2018-12-27T10:16:19.393Z,6.25
2018-12-27T10:17:08.939Z,7.60
2018-12-27T10:17:56.749Z,5.42
2018-12-27T10:18:44.890Z,6.85
2018-12-27T10:19:32.852Z,7.00
2018-12-27T10:20:20.901Z,5.75
2018-12-27T10:21:08.670Z,6.42
2018-12-27T10:21:56.681Z,10.78
2018-12-27T10:22:44.760Z,5.72
2018-12-27T10:23:32.481Z,6.53
2018-12-27T10:24:20.747Z,5.80
2018-12-27T10:25:09.382Z,5.53
2018-12-27T10:25:57.477Z,5.87
2018-12-27T10:26:45.678Z,5.87
2018-12-27T10:27:34.232Z,6.47
2018-12-27T10:28:22.507Z,12.75
2018-12-27T10:29:10.872Z,6.35
2018-12-27T10:29:58.983Z,7.40
2018-12-27T10:30:47.647Z,5.00
2018-12-27T10:31:36.064Z,5.28
2018-12-27T10:32:23.902Z,4.92